sensor_id;sensor_type;location;lat;lon;timestamp;pressure;altitude;pressure_sealevel;temperature;humidity
69766;BME280;57039;48.014;21.384;2023-02-03T00:00:59;101069.53;;;1.99;98.44
69766;BME280;57039;48.014;21.384;2023-02-03T00:02:03;101069.50;;;2.02;97.78
69766;BME280;57039;48.014;21.384;2023-02-03T00:03:05;101068.69;;;1.97;97.05
69766;BME280;57039;48.014;21.384;2023-02-03T00:04:08;101082.41;;;2.05;96.49
69766;BME280;57039;48.014;21.384;2023-02-03T00:05:11;101080.63;;;2.10;94.33
69766;BME280;57039;48.014;21.384;2023-02-03T00:06:14;101078.84;;;2.15;92.77
69766;BME280;57039;48.014;21.384;2023-02-03T00:07:17;101082.28;;;2.19;92.23
69766;BME280;57039;48.014;21.384;2023-02-03T00:08:20;101080.50;;;2.22;91.26
69766;BME280;57039;48.014;21.384;2023-02-03T00:09:24;101092.56;;;2.25;91.17
69766;BME280;57039;48.014;21.384;2023-02-03T00:10:27;101077.13;;;2.16;91.03
69766;BME280;57039;48.014;21.384;2023-02-03T00:11:30;101087.38;;;2.25;91.25
69766;BME280;57039;48.014;21.384;2023-02-03T00:12:33;101089.06;;;2.27;90.67
69766;BME280;57039;48.014;21.384;2023-02-03T00:13:36;101090.78;;;2.27;90.50
69766;BME280;57039;48.014;21.384;2023-02-03T00:14:39;101102.03;;;2.27;89.99
69766;BME280;57039;48.014;21.384;2023-02-03T00:15:42;101100.22;;;2.34;88.68
69766;BME280;57039;48.014;21.384;2023-02-03T00:16:44;101095.03;;;2.34;88.32
69766;BME280;57039;48.014;21.384;2023-02-03T00:17:48;101095.00;;;2.36;87.95
69766;BME280;57039;48.014;21.384;2023-02-03T00:18:50;101100.12;;;2.40;86.71
69766;BME280;57039;48.014;21.384;2023-02-03T00:19:53;101082.88;;;2.42;86.14
69766;BME280;57039;48.014;21.384;2023-02-03T00:20:56;101086.31;;;2.43;86.11
69766;BME280;57039;48.014;21.384;2023-02-03T00:21:58;101075.91;;;2.44;85.25
69766;BME280;57039;48.014;21.384;2023-02-03T00:23:06;101078.41;;;2.52;84.40
69766;BME280;57039;48.014;21.384;2023-02-03T00:24:09;101082.75;;;2.50;84.60
69766;BME280;57039;48.014;21.384;2023-02-03T00:25:11;101093.12;;;2.48;84.12
69766;BME280;57039;48.014;21.384;2023-02-03T00:26:16;101085.34;;;2.50;83.93
69766;BME280;57039;48.014;21.384;2023-02-03T00:27:20;101102.66;;;2.46;84.01
69766;BME280;57039;48.014;21.384;2023-02-03T00:28:23;101099.22;;;2.46;83.98
69766;BME280;57039;48.014;21.384;2023-02-03T00:29:29;101103.56;;;2.42;84.24
69766;BME280;57039;48.014;21.384;2023-02-03T00:30:36;101108.75;;;2.42;84.05
69766;BME280;57039;48.014;21.384;2023-02-03T00:31:39;101108.75;;;2.39;84.38
69766;BME280;57039;48.014;21.384;2023-02-03T00:32:42;101101.94;;;2.34;84.62
69766;BME280;57039;48.014;21.384;2023-02-03T00:33:46;101110.53;;;2.36;84.19
69766;BME280;57039;48.014;21.384;2023-02-03T00:34:51;101115.75;;;2.33;84.29
69766;BME280;57039;48.014;21.384;2023-02-03T00:35:54;101114.03;;;2.30;84.52
69766;BME280;57039;48.014;21.384;2023-02-03T00:36:57;101124.47;;;2.25;84.82
69766;BME280;57039;48.014;21.384;2023-02-03T00:38:00;101122.75;;;2.23;84.95
69766;BME280;57039;48.014;21.384;2023-02-03T00:39:03;101129.69;;;2.22;84.93
69766;BME280;57039;48.014;21.384;2023-02-03T00:40:07;101136.62;;;2.19;85.23
69766;BME280;57039;48.014;21.384;2023-02-03T00:41:10;101134.06;;;2.16;85.57
69766;BME280;57039;48.014;21.384;2023-02-03T00:42:14;101140.12;;;2.13;85.62
69766;BME280;57039;48.014;21.384;2023-02-03T00:43:19;101146.19;;;2.09;86.11
69766;BME280;57039;48.014;21.384;2023-02-03T00:44:22;101138.50;;;2.01;86.09
69766;BME280;57039;48.014;21.384;2023-02-03T00:45:25;101141.97;;;2.02;85.66
69766;BME280;57039;48.014;21.384;2023-02-03T00:46:28;101159.19;;;2.04;86.18
69766;BME280;57039;48.014;21.384;2023-02-03T00:47:31;101157.44;;;2.10;85.40
69766;BME280;57039;48.014;21.384;2023-02-03T00:48:34;101160.06;;;2.03;86.05
69766;BME280;57039;48.014;21.384;2023-02-03T00:49:37;101171.28;;;2.04;85.91
69766;BME280;57039;48.014;21.384;2023-02-03T00:50:39;101160.06;;;2.00;86.01
69766;BME280;57039;48.014;21.384;2023-02-03T00:51:42;101165.28;;;1.99;86.37
69766;BME280;57039;48.014;21.384;2023-02-03T00:52:45;101160.09;;;1.99;86.52
69766;BME280;57039;48.014;21.384;2023-02-03T00:53:48;101157.53;;;1.94;86.76
69766;BME280;57039;48.014;21.384;2023-02-03T00:54:51;101161.06;;;1.89;86.85
69766;BME280;57039;48.014;21.384;2023-02-03T00:55:53;101166.22;;;1.90;86.89
69766;BME280;57039;48.014;21.384;2023-02-03T00:56:56;101175.69;;;1.91;86.71
69766;BME280;57039;48.014;21.384;2023-02-03T00:57:59;101172.28;;;1.88;87.16
69766;BME280;57039;48.014;21.384;2023-02-03T00:59:02;101174.03;;;1.84;87.42
69766;BME280;57039;48.014;21.384;2023-02-03T01:00:06;101175.78;;;1.80;87.70
69766;BME280;57039;48.014;21.384;2023-02-03T01:01:10;101174.09;;;1.78;87.76
69766;BME280;57039;48.014;21.384;2023-02-03T01:02:13;101170.66;;;1.73;88.22
69766;BME280;57039;48.014;21.384;2023-02-03T01:03:16;101174.12;;;1.70;88.15
69766;BME280;57039;48.014;21.384;2023-02-03T01:04:19;101175.00;;;1.71;88.29
69766;BME280;57039;48.014;21.384;2023-02-03T01:05:22;101173.31;;;1.67;88.46
69766;BME280;57039;48.014;21.384;2023-02-03T01:06:25;101180.25;;;1.62;88.70
69766;BME280;57039;48.014;21.384;2023-02-03T01:07:31;101181.16;;;1.56;89.09
69766;BME280;57039;48.014;21.384;2023-02-03T01:08:34;101177.72;;;1.52;89.32
69766;BME280;57039;48.014;21.384;2023-02-03T01:09:37;101177.72;;;1.52;89.34
69766;BME280;57039;48.014;21.384;2023-02-03T01:10:40;101181.19;;;1.51;89.47
69766;BME280;57039;48.014;21.384;2023-02-03T01:11:43;101176.03;;;1.50;89.66
69766;BME280;57039;48.014;21.384;2023-02-03T01:12:46;101179.50;;;1.47;89.83
69766;BME280;57039;48.014;21.384;2023-02-03T01:13:50;101192.41;;;1.47;89.77
69766;BME280;57039;48.014;21.384;2023-02-03T01:14:53;101180.34;;;1.43;90.05
69766;BME280;57039;48.014;21.384;2023-02-03T01:15:56;101188.12;;;1.42;90.03
69766;BME280;57039;48.014;21.384;2023-02-03T01:17:00;101180.38;;;1.40;89.98
69766;BME280;57039;48.014;21.384;2023-02-03T01:18:04;101182.97;;;1.40;90.08
69766;BME280;57039;48.014;21.384;2023-02-03T01:19:06;101182.16;;;1.35;90.32
69766;BME280;57039;48.014;21.384;2023-02-03T01:20:10;101173.53;;;1.33;90.33
69766;BME280;57039;48.014;21.384;2023-02-03T01:21:20;101171.81;;;1.33;90.53
69766;BME280;57039;48.014;21.384;2023-02-03T01:22:23;101164.09;;;1.27;90.59
69766;BME280;57039;48.014;21.384;2023-02-03T01:23:26;101171.84;;;1.30;90.57
69766;BME280;57039;48.014;21.384;2023-02-03T01:24:29;101175.28;;;1.31;90.72
69766;BME280;57039;48.014;21.384;2023-02-03T01:25:34;101177.84;;;1.31;90.62
69766;BME280;57039;48.014;21.384;2023-02-03T01:26:37;101173.56;;;1.30;90.83
69766;BME280;57039;48.014;21.384;2023-02-03T01:27:40;101178.75;;;1.27;91.09
69766;BME280;57039;48.014;21.384;2023-02-03T01:28:43;101163.31;;;1.14;91.19
69766;BME280;57039;48.014;21.384;2023-02-03T01:29:46;101180.50;;;1.22;91.32
69766;BME280;57039;48.014;21.384;2023-02-03T01:30:49;101185.69;;;1.19;91.54
69766;BME280;57039;48.014;21.384;2023-02-03T01:31:52;101185.69;;;1.19;91.87
69766;BME280;57039;48.014;21.384;2023-02-03T01:32:55;101182.25;;;1.17;92.05
69766;BME280;57039;48.014;21.384;2023-02-03T01:33:57;101184.84;;;1.13;92.07
69766;BME280;57039;48.014;21.384;2023-02-03T01:35:01;101190.03;;;1.12;92.38
69766;BME280;57039;48.014;21.384;2023-02-03T01:36:04;101185.75;;;1.06;92.45
69766;BME280;57039;48.014;21.384;2023-02-03T01:37:07;101184.91;;;1.03;92.55
69766;BME280;57039;48.014;21.384;2023-02-03T01:38:09;101184.91;;;1.01;92.79
69766;BME280;57039;48.014;21.384;2023-02-03T01:39:12;101180.62;;;1.00;92.53
69766;BME280;57039;48.014;21.384;2023-02-03T01:40:16;101184.91;;;1.01;92.62
69766;BME280;57039;48.014;21.384;2023-02-03T01:41:22;101184.06;;;0.98;92.64
69766;BME280;57039;48.014;21.384;2023-02-03T01:42:25;101187.53;;;0.95;92.75
69766;BME280;57039;48.014;21.384;2023-02-03T01:43:53;101190.13;;;0.92;92.97
69766;BME280;57039;48.014;21.384;2023-02-03T01:44:56;101188.41;;;0.89;92.95
69766;BME280;57039;48.014;21.384;2023-02-03T01:46:02;101181.56;;;0.84;93.23
69766;BME280;57039;48.014;21.384;2023-02-03T01:48:21;101185.87;;;0.80;93.65
69766;BME280;57039;48.014;21.384;2023-02-03T01:49:33;101183.31;;;0.76;93.96
69766;BME280;57039;48.014;21.384;2023-02-03T01:50:37;101182.47;;;0.71;94.41
69766;BME280;57039;48.014;21.384;2023-02-03T01:51:41;101180.78;;;0.66;94.42
69766;BME280;57039;48.014;21.384;2023-02-03T01:52:50;101167.00;;;0.60;94.38
69766;BME280;57039;48.014;21.384;2023-02-03T01:53:55;101179.03;;;0.65;94.44
69766;BME280;57039;48.014;21.384;2023-02-03T01:55:01;101180.78;;;0.66;94.19
69766;BME280;57039;48.014;21.384;2023-02-03T01:56:05;101176.47;;;0.67;94.43
69766;BME280;57039;48.014;21.384;2023-02-03T01:57:14;101179.87;;;0.71;94.14
69766;BME280;57039;48.014;21.384;2023-02-03T01:58:28;101181.59;;;0.68;94.20
69766;BME280;57039;48.014;21.384;2023-02-03T01:59:33;101185.91;;;0.70;94.11
69766;BME280;57039;48.014;21.384;2023-02-03T02:00:36;101185.03;;;0.71;94.14
69766;BME280;57039;48.014;21.384;2023-02-03T02:01:39;101173.00;;;0.71;93.96
69766;BME280;57039;48.014;21.384;2023-02-03T02:02:44;101183.31;;;0.71;93.92
69766;BME280;57039;48.014;21.384;2023-02-03T02:03:51;101170.44;;;0.65;93.80
69766;BME280;57039;48.014;21.384;2023-02-03T02:05:05;101187.62;;;0.71;93.68
69766;BME280;57039;48.014;21.384;2023-02-03T02:06:10;101178.16;;;0.68;93.66
69766;BME280;57039;48.014;21.384;2023-02-03T02:07:15;101188.47;;;0.71;93.66
69766;BME280;57039;48.014;21.384;2023-02-03T02:08:19;101191.09;;;0.70;93.75
69766;BME280;57039;48.014;21.384;2023-02-03T02:09:25;101184.19;;;0.70;93.90
69766;BME280;57039;48.014;21.384;2023-02-03T02:10:29;101185.91;;;0.70;93.88
69766;BME280;57039;48.014;21.384;2023-02-03T02:11:33;101184.19;;;0.70;93.92
69766;BME280;57039;48.014;21.384;2023-02-03T02:12:36;101185.91;;;0.70;93.80
69766;BME280;57039;48.014;21.384;2023-02-03T02:13:40;101169.59;;;0.63;93.87
69766;BME280;57039;48.014;21.384;2023-02-03T02:14:45;101175.59;;;0.68;94.13
69766;BME280;57039;48.014;21.384;2023-02-03T02:15:57;101177.31;;;0.71;94.04
69766;BME280;57039;48.014;21.384;2023-02-03T02:17:10;101185.06;;;0.67;93.96
69766;BME280;57039;48.014;21.384;2023-02-03T02:18:45;101185.06;;;0.64;94.27
69766;BME280;57039;48.014;21.384;2023-02-03T02:31:49;101199.75;;;0.47;95.42
69766;BME280;57039;48.014;21.384;2023-02-03T02:34:33;101218.72;;;0.31;96.06
69766;BME280;57039;48.014;21.384;2023-02-03T02:38:55;101219.56;;;0.30;95.86
69766;BME280;57039;48.014;21.384;2023-02-03T02:43:48;101229.03;;;0.37;95.40
69766;BME280;57039;48.014;21.384;2023-02-03T02:45:08;101225.59;;;0.35;95.62
69766;BME280;57039;48.014;21.384;2023-02-03T02:46:18;101223.03;;;0.33;95.66
69766;BME280;57039;48.014;21.384;2023-02-03T02:47:25;101227.31;;;0.28;95.79
69766;BME280;57039;48.014;21.384;2023-02-03T02:48:37;101235.06;;;0.31;95.88
69766;BME280;57039;48.014;21.384;2023-02-03T02:50:03;101229.91;;;0.28;96.03
69766;BME280;57039;48.014;21.384;2023-02-03T02:51:10;101235.91;;;0.26;96.22
69766;BME280;57039;48.014;21.384;2023-02-03T02:52:15;101235.91;;;0.26;96.22
69766;BME280;57039;48.014;21.384;2023-02-03T02:53:21;101231.62;;;0.23;96.33
69766;BME280;57039;48.014;21.384;2023-02-03T02:54:26;101235.06;;;0.20;96.39
69766;BME280;57039;48.014;21.384;2023-02-03T02:55:32;101237.66;;;0.19;96.63
69766;BME280;57039;48.014;21.384;2023-02-03T02:56:38;101236.78;;;0.15;96.67
69766;BME280;57039;48.014;21.384;2023-02-03T02:57:43;101239.38;;;0.14;96.85
69766;BME280;57039;48.014;21.384;2023-02-03T02:58:48;101235.06;;;0.11;97.13
69766;BME280;57039;48.014;21.384;2023-02-03T02:59:52;101237.63;;;0.11;97.21
69766;BME280;57039;48.014;21.384;2023-02-03T03:00:56;101243.66;;;0.09;97.50
69766;BME280;57039;48.014;21.384;2023-02-03T03:01:59;101229.03;;;-0.03;97.68
69766;BME280;57039;48.014;21.384;2023-02-03T03:03:20;101241.09;;;0.04;97.83
69766;BME280;57039;48.014;21.384;2023-02-03T03:04:27;101245.38;;;0.05;98.37
69766;BME280;57039;48.014;21.384;2023-02-03T03:05:32;101249.69;;;0.02;98.59
69766;BME280;57039;48.014;21.384;2023-02-03T03:06:46;101256.56;;;0.01;98.56
69766;BME280;57039;48.014;21.384;2023-02-03T03:07:55;101217.88;;;-0.19;98.43
69766;BME280;57039;48.014;21.384;2023-02-03T03:10:10;101250.56;;;-0.03;98.92
69766;BME280;57039;48.014;21.384;2023-02-03T03:11:16;101253.13;;;-0.04;98.93
69766;BME280;57039;48.014;21.384;2023-02-03T03:12:22;101243.66;;;-0.11;98.79
69766;BME280;57039;48.014;21.384;2023-02-03T03:13:31;101254.84;;;-0.05;98.67
69766;BME280;57039;48.014;21.384;2023-02-03T03:14:38;101251.38;;;-0.07;98.78
69766;BME280;57039;48.014;21.384;2023-02-03T03:15:44;101250.56;;;-0.06;98.90
69766;BME280;57039;48.014;21.384;2023-02-03T03:17:01;101260.87;;;-0.12;99.20
69766;BME280;57039;48.014;21.384;2023-02-03T03:18:24;101248.81;;;-0.13;99.40
69766;BME280;57039;48.014;21.384;2023-02-03T03:19:42;101249.66;;;-0.09;99.21
69766;BME280;57039;48.014;21.384;2023-02-03T03:20:49;101247.09;;;-0.11;99.24
69766;BME280;57039;48.014;21.384;2023-02-03T03:21:58;101250.56;;;-0.15;99.46
69766;BME280;57039;48.014;21.384;2023-02-03T03:23:06;101250.53;;;-0.16;99.36
69766;BME280;57039;48.014;21.384;2023-02-03T03:24:14;101253.13;;;-0.16;99.13
69766;BME280;57039;48.014;21.384;2023-02-03T03:25:20;101245.41;;;-0.15;98.87
69766;BME280;57039;48.014;21.384;2023-02-03T03:26:31;101245.41;;;-0.12;98.54
69766;BME280;57039;48.014;21.384;2023-02-03T03:27:40;101245.41;;;0.07;97.78
69766;BME280;57039;48.014;21.384;2023-02-03T03:28:51;101241.94;;;-0.12;98.20
69766;BME280;57039;48.014;21.384;2023-02-03T03:30:04;101244.50;;;-0.09;98.39
69766;BME280;57039;48.014;21.384;2023-02-03T03:31:08;101246.25;;;-0.17;98.86
69766;BME280;57039;48.014;21.384;2023-02-03T03:32:11;101229.03;;;-0.25;98.96
69766;BME280;57039;48.014;21.384;2023-02-03T03:33:14;101241.94;;;-0.23;98.98
69766;BME280;57039;48.014;21.384;2023-02-03T03:34:17;101238.50;;;-0.28;98.91
69766;BME280;57039;48.014;21.384;2023-02-03T03:35:21;101247.06;;;-0.48;100.00
69766;BME280;57039;48.014;21.384;2023-02-03T03:36:31;101228.97;;;-0.61;100.00
69766;BME280;57039;48.014;21.384;2023-02-03T03:37:38;101253.06;;;-0.50;100.00
69766;BME280;57039;48.014;21.384;2023-02-03T03:38:52;101247.91;;;-0.50;100.00
69766;BME280;57039;48.014;21.384;2023-02-03T03:39:59;101247.06;;;-0.51;100.00
69766;BME280;57039;48.014;21.384;2023-02-03T03:41:07;101241.88;;;-0.52;100.00
69766;BME280;57039;48.014;21.384;2023-02-03T03:43:38;101241.03;;;-0.56;100.00
69766;BME280;57039;48.014;21.384;2023-02-03T03:46:29;101226.44;;;-0.60;100.00
69766;BME280;57039;48.014;21.384;2023-02-03T03:47:40;101238.47;;;-0.50;100.00
69766;BME280;57039;48.014;21.384;2023-02-03T03:48:58;101239.34;;;-0.48;100.00
69766;BME280;57039;48.014;21.384;2023-02-03T03:50:03;101235.88;;;-0.43;100.00
69766;BME280;57039;48.014;21.384;2023-02-03T03:51:15;101238.47;;;-0.40;100.00
69766;BME280;57039;48.014;21.384;2023-02-03T03:52:24;101229.87;;;-0.41;100.00
69766;BME280;57039;48.014;21.384;2023-02-03T03:53:31;101223.00;;;-0.37;100.00
69766;BME280;57039;48.014;21.384;2023-02-03T03:54:36;101225.59;;;-0.28;99.85
69766;BME280;57039;48.014;21.384;2023-02-03T03:55:40;101224.75;;;-0.22;99.25
69766;BME280;57039;48.014;21.384;2023-02-03T03:56:57;101223.03;;;-0.17;98.91
69766;BME280;57039;48.014;21.384;2023-02-03T03:58:15;101226.47;;;-0.15;98.60
69766;BME280;57039;48.014;21.384;2023-02-03T03:59:21;101227.31;;;-0.13;98.33
69766;BME280;57039;48.014;21.384;2023-02-03T04:00:28;101221.31;;;-0.14;98.35
69766;BME280;57039;48.014;21.384;2023-02-03T04:01:32;101227.31;;;-0.10;98.07
69766;BME280;57039;48.014;21.384;2023-02-03T04:02:38;101224.75;;;-0.09;97.91
69766;BME280;57039;48.014;21.384;2023-02-03T04:03:47;101221.31;;;-0.08;97.85
69766;BME280;57039;48.014;21.384;2023-02-03T04:04:52;101225.59;;;-0.07;97.68
69766;BME280;57039;48.014;21.384;2023-02-03T04:05:56;101223.03;;;-0.07;97.64
69766;BME280;57039;48.014;21.384;2023-02-03T04:06:59;101229.03;;;-0.06;97.42
69766;BME280;57039;48.014;21.384;2023-02-03T04:08:02;101228.19;;;-0.08;97.50
69766;BME280;57039;48.014;21.384;2023-02-03T04:09:05;101224.75;;;-0.09;97.59
69766;BME280;57039;48.014;21.384;2023-02-03T04:10:31;101229.91;;;-0.07;97.57
69766;BME280;57039;48.014;21.384;2023-02-03T04:11:35;101243.66;;;-0.05;97.49
69766;BME280;57039;48.014;21.384;2023-02-03T04:12:57;101239.38;;;-0.08;97.53
69766;BME280;57039;48.014;21.384;2023-02-03T04:14:00;101235.09;;;-0.09;97.55
69766;BME280;57039;48.014;21.384;2023-02-03T04:15:03;101238.50;;;-0.10;97.51
69766;BME280;57039;48.014;21.384;2023-02-03T04:16:06;101237.66;;;-0.10;97.61
69766;BME280;57039;48.014;21.384;2023-02-03T04:17:09;101245.38;;;-0.10;97.57
69766;BME280;57039;48.014;21.384;2023-02-03T04:18:13;101237.66;;;-0.13;97.91
69766;BME280;57039;48.014;21.384;2023-02-03T04:19:16;101239.34;;;-0.18;98.44
69766;BME280;57039;48.014;21.384;2023-02-03T04:20:19;101242.78;;;-0.29;98.93
69766;BME280;57039;48.014;21.384;2023-02-03T04:21:22;101235.91;;;-0.39;98.93
69766;BME280;57039;48.014;21.384;2023-02-03T04:22:25;101241.03;;;-0.42;98.96
69766;BME280;57039;48.014;21.384;2023-02-03T04:23:28;101238.44;;;-0.45;99.03
69766;BME280;57039;48.014;21.384;2023-02-03T04:24:30;101241.91;;;-0.46;99.25
69766;BME280;57039;48.014;21.384;2023-02-03T04:25:33;101243.59;;;-0.48;99.34
69766;BME280;57039;48.014;21.384;2023-02-03T04:26:36;101236.75;;;-0.51;99.52
69766;BME280;57039;48.014;21.384;2023-02-03T04:27:39;101229.00;;;-0.58;99.60
69766;BME280;57039;48.014;21.384;2023-02-03T04:28:43;101228.97;;;-0.63;99.73
69766;BME280;57039;48.014;21.384;2023-02-03T04:29:45;101237.56;;;-0.55;99.70
69766;BME280;57039;48.014;21.384;2023-02-03T04:30:48;101235.00;;;-0.55;99.82
69766;BME280;57039;48.014;21.384;2023-02-03T04:31:51;101240.19;;;-0.50;99.53
69766;BME280;57039;48.014;21.384;2023-02-03T04:32:54;101239.31;;;-0.49;99.73
69766;BME280;57039;48.014;21.384;2023-02-03T04:33:57;101235.88;;;-0.51;99.41
69766;BME280;57039;48.014;21.384;2023-02-03T04:35:01;101239.31;;;-0.49;99.13
69766;BME280;57039;48.014;21.384;2023-02-03T04:36:04;101235.88;;;-0.50;99.09
69766;BME280;57039;48.014;21.384;2023-02-03T04:37:06;101238.47;;;-0.47;99.18
69766;BME280;57039;48.014;21.384;2023-02-03T04:38:09;101241.03;;;-0.48;99.29
69766;BME280;57039;48.014;21.384;2023-02-03T04:39:12;101237.59;;;-0.46;98.98
69766;BME280;57039;48.014;21.384;2023-02-03T04:40:15;101247.06;;;-0.44;98.96
69766;BME280;57039;48.014;21.384;2023-02-03T04:41:18;101242.75;;;-0.47;99.31
69766;BME280;57039;48.014;21.384;2023-02-03T04:42:21;101248.75;;;-0.50;99.44
69766;BME280;57039;48.014;21.384;2023-02-03T04:43:25;101244.47;;;-0.51;99.55
69766;BME280;57039;48.014;21.384;2023-02-03T04:44:28;101253.06;;;-0.50;99.64
69766;BME280;57039;48.014;21.384;2023-02-03T04:45:30;101246.16;;;-0.59;99.80
69766;BME280;57039;48.014;21.384;2023-02-03T04:46:33;101257.34;;;-0.55;100.00
69766;BME280;57039;48.014;21.384;2023-02-03T04:47:37;101254.75;;;-0.61;100.00
69766;BME280;57039;48.014;21.384;2023-02-03T04:48:40;101258.13;;;-0.82;100.00
69766;BME280;57039;48.014;21.384;2023-02-03T04:49:44;101258.09;;;-0.88;100.00
69766;BME280;57039;48.014;21.384;2023-02-03T04:50:46;101254.63;;;-0.95;100.00
69766;BME280;57039;48.014;21.384;2023-02-03T04:51:49;101246.84;;;-1.09;100.00
69766;BME280;57039;48.014;21.384;2023-02-03T04:52:52;101262.31;;;-1.06;100.00
69766;BME280;57039;48.014;21.384;2023-02-03T04:53:55;101263.19;;;-1.04;100.00
69766;BME280;57039;48.014;21.384;2023-02-03T04:54:58;101264.00;;;-1.05;100.00
69766;BME280;57039;48.014;21.384;2023-02-03T04:56:00;101265.72;;;-1.05;100.00
69766;BME280;57039;48.014;21.384;2023-02-03T04:57:04;101274.31;;;-1.06;100.00
69766;BME280;57039;48.014;21.384;2023-02-03T04:58:07;101275.19;;;-1.07;100.00
69766;BME280;57039;48.014;21.384;2023-02-03T04:59:10;101277.72;;;-1.12;100.00
69766;BME280;57039;48.014;21.384;2023-02-03T05:00:13;101282.00;;;-1.14;100.00
69766;BME280;57039;48.014;21.384;2023-02-03T05:01:16;101276.81;;;-1.17;100.00
69766;BME280;57039;48.014;21.384;2023-02-03T05:02:19;101282.78;;;-1.23;100.00
69766;BME280;57039;48.014;21.384;2023-02-03T05:03:22;101287.03;;;-1.37;100.00
69766;BME280;57039;48.014;21.384;2023-02-03T05:04:27;101286.94;;;-1.49;100.00
69766;BME280;57039;48.014;21.384;2023-02-03T05:05:30;101293.72;;;-1.59;100.00
69766;BME280;57039;48.014;21.384;2023-02-03T05:06:33;101294.47;;;-1.72;100.00
69766;BME280;57039;48.014;21.384;2023-02-03T05:07:36;101289.34;;;-1.68;100.00
69766;BME280;57039;48.014;21.384;2023-02-03T05:08:39;101291.13;;;-1.59;100.00
69766;BME280;57039;48.014;21.384;2023-02-03T05:09:41;101282.62;;;-1.52;100.00
69766;BME280;57039;48.014;21.384;2023-02-03T05:10:45;101281.75;;;-1.55;100.00
69766;BME280;57039;48.014;21.384;2023-02-03T05:11:47;101287.75;;;-1.58;100.00
69766;BME280;57039;48.014;21.384;2023-02-03T05:12:51;101279.97;;;-1.63;100.00
69766;BME280;57039;48.014;21.384;2023-02-03T05:13:54;101293.72;;;-1.56;100.00
69766;BME280;57039;48.014;21.384;2023-02-03T05:14:56;101293.75;;;-1.54;100.00
69766;BME280;57039;48.014;21.384;2023-02-03T05:16:00;101290.34;;;-1.52;100.00
69766;BME280;57039;48.014;21.384;2023-02-03T05:17:03;101287.81;;;-1.49;100.00
69766;BME280;57039;48.014;21.384;2023-02-03T05:18:05;101285.25;;;-1.41;100.00
69766;BME280;57039;48.014;21.384;2023-02-03T05:19:08;101290.44;;;-1.38;100.00
69766;BME280;57039;48.014;21.384;2023-02-03T05:20:11;101287.03;;;-1.34;100.00
69766;BME280;57039;48.014;21.384;2023-02-03T05:21:14;101287.91;;;-1.32;100.00
69766;BME280;57039;48.014;21.384;2023-02-03T05:22:17;101291.37;;;-1.28;100.00
69766;BME280;57039;48.014;21.384;2023-02-03T05:23:19;101281.06;;;-1.31;100.00
69766;BME280;57039;48.014;21.384;2023-02-03T05:24:22;101281.94;;;-1.25;100.00
69766;BME280;57039;48.014;21.384;2023-02-03T05:25:26;101284.50;;;-1.23;100.00
69766;BME280;57039;48.014;21.384;2023-02-03T05:26:29;101288.81;;;-1.24;100.00
69766;BME280;57039;48.014;21.384;2023-02-03T05:27:32;101294.81;;;-1.25;100.00
69766;BME280;57039;48.014;21.384;2023-02-03T05:28:35;101271.56;;;-1.35;100.00
69766;BME280;57039;48.014;21.384;2023-02-03T05:29:37;101281.91;;;-1.29;100.00
69766;BME280;57039;48.014;21.384;2023-02-03T05:30:40;101293.09;;;-1.24;100.00
69766;BME280;57039;48.014;21.384;2023-02-03T05:31:43;101296.53;;;-1.25;100.00
69766;BME280;57039;48.014;21.384;2023-02-03T05:32:47;101293.09;;;-1.23;100.00
69766;BME280;57039;48.014;21.384;2023-02-03T05:33:50;101293.12;;;-1.21;100.00
69766;BME280;57039;48.014;21.384;2023-02-03T05:34:53;101295.72;;;-1.20;100.00
69766;BME280;57039;48.014;21.384;2023-02-03T05:35:55;101294.81;;;-1.20;100.00
69766;BME280;57039;48.014;21.384;2023-02-03T05:36:58;101294.81;;;-1.20;100.00
69766;BME280;57039;48.014;21.384;2023-02-03T05:38:02;101294.81;;;-1.25;100.00
69766;BME280;57039;48.014;21.384;2023-02-03T05:39:05;101294.75;;;-1.32;100.00
69766;BME280;57039;48.014;21.384;2023-02-03T05:40:08;101305.94;;;-1.30;100.00
69766;BME280;57039;48.014;21.384;2023-02-03T05:41:30;101310.19;;;-1.32;100.00
69766;BME280;57039;48.014;21.384;2023-02-03T05:42:51;101307.66;;;-1.31;100.00
69766;BME280;57039;48.014;21.384;2023-02-03T05:43:54;101310.22;;;-1.34;100.00
69766;BME280;57039;48.014;21.384;2023-02-03T05:44:56;101312.75;;;-1.35;100.00
69766;BME280;57039;48.014;21.384;2023-02-03T05:46:00;101310.16;;;-1.39;100.00
69766;BME280;57039;48.014;21.384;2023-02-03T05:47:04;101301.53;;;-1.45;100.00
69766;BME280;57039;48.014;21.384;2023-02-03T05:48:07;101314.47;;;-1.37;100.00
69766;BME280;57039;48.014;21.384;2023-02-03T05:49:10;101308.47;;;-1.36;100.00
69766;BME280;57039;48.014;21.384;2023-02-03T05:50:13;101313.62;;;-1.36;100.00
69766;BME280;57039;48.014;21.384;2023-02-03T05:51:16;101306.78;;;-1.34;100.00
69766;BME280;57039;48.014;21.384;2023-02-03T05:52:18;101316.19;;;-1.32;100.00
69766;BME280;57039;48.014;21.384;2023-02-03T05:53:22;101317.09;;;-1.28;100.00
69766;BME280;57039;48.014;21.384;2023-02-03T05:54:24;101315.37;;;-1.29;100.00
69766;BME280;57039;48.014;21.384;2023-02-03T05:55:28;101316.25;;;-1.26;100.00
69766;BME280;57039;48.014;21.384;2023-02-03T05:56:31;101314.56;;;-1.25;100.00
69766;BME280;57039;48.014;21.384;2023-02-03T05:57:34;101303.31;;;-1.35;100.00
69766;BME280;57039;48.014;21.384;2023-02-03T05:58:37;101321.37;;;-1.26;100.00
69766;BME280;57039;48.014;21.384;2023-02-03T05:59:39;101319.69;;;-1.27;100.00
69766;BME280;57039;48.014;21.384;2023-02-03T06:00:42;101314.56;;;-1.24;100.00
69766;BME280;57039;48.014;21.384;2023-02-03T06:01:45;101309.38;;;-1.27;100.00
69766;BME280;57039;48.014;21.384;2023-02-03T06:02:55;101325.72;;;-1.20;100.00
69766;BME280;57039;48.014;21.384;2023-02-03T06:03:59;101322.31;;;-1.18;100.00